Time;durP1;ratioP1;P1;durP2;ratioP2;P2;SDS_P1;SDS_P2;PMS_P1;PMS_P2;Temp;Humidity;BMP_temperature;BMP_pressure;BME280_temperature;BME280_humidity;BME280_pressure;Samples;Min_cycle;Max_cycle;Signal;HPM_P1;HPM_P2
2023/05/07 00:01:06;;;;;;;140.85;64.00;;;;;;;18.58;41.53;101927.81;5044066;28;20079;-71
2023/05/07 00:03:32;;;;;;;152.27;65.32;;;;;;;18.57;42.13;101920.78;5053483;28;20055;-71
2023/05/07 00:05:57;;;;;;;157.18;66.78;;;;;;;18.57;41.75;101930.53;5027285;28;20036;-71
2023/05/07 00:08:23;;;;;;;144.40;65.60;;;;;;;18.57;42.08;101930.53;5061223;28;20053;-70
2023/05/07 00:10:48;;;;;;;147.80;65.90;;;;;;;18.57;42.42;101930.53;5053715;28;20105;-70
2023/05/07 00:13:14;;;;;;;141.10;65.47;;;;;;;18.55;41.76;101927.03;5031558;28;20087;-71
2023/05/07 00:15:39;;;;;;;146.55;65.18;;;;;;;18.55;41.90;101933.19;5044998;28;20029;-70
2023/05/07 00:18:05;;;;;;;142.93;65.10;;;;;;;18.54;42.45;101931.47;5048864;28;20151;-70
2023/05/07 00:20:30;;;;;;;151.68;65.50;;;;;;;18.53;42.08;101927.09;5045822;28;20020;-71
2023/05/07 00:22:55;;;;;;;149.48;65.10;;;;;;;18.53;42.33;101929.75;5051432;28;20021;-70
2023/05/07 00:25:21;;;;;;;153.25;65.93;;;;;;;18.55;42.22;101932.34;5050908;28;20052;-72
2023/05/07 00:27:46;;;;;;;160.35;67.95;;;;;;;18.56;43.01;101932.28;5046164;28;20753;-72
2023/05/07 00:30:12;;;;;;;159.40;67.80;;;;;;;18.56;42.78;101928.78;5048254;28;20485;-70
2023/05/07 00:32:38;;;;;;;138.32;63.38;;;;;;;18.55;42.73;101937.63;5044207;28;20024;-71
2023/05/07 00:35:04;;;;;;;153.05;65.38;;;;;;;18.53;42.91;101929.75;5045491;28;20020;-71
2023/05/07 00:37:30;;;;;;;164.52;68.47;;;;;;;18.53;43.09;101934.19;5049362;28;20029;-71
2023/05/07 00:39:55;;;;;;;150.85;66.93;;;;;;;18.51;43.08;101925.41;5030876;28;20367;-71
2023/05/07 00:42:20;;;;;;;147.63;65.32;;;;;;;18.50;42.79;101928.94;5033087;28;20563;-71
2023/05/07 00:44:46;;;;;;;143.43;64.88;;;;;;;18.49;42.66;101914.88;5037070;28;20117;-71
2023/05/07 00:47:11;;;;;;;144.90;65.82;;;;;;;18.47;42.73;101910.53;5049114;28;20091;-70
2023/05/07 00:49:46;;;;;;;149.80;64.15;;;;;;;18.46;42.53;101919.38;5051207;28;20057;-71
2023/05/07 00:52:14;;;;;;;148.07;65.22;;;;;;;18.45;42.51;101918.53;5062649;28;20032;-71
2023/05/07 00:54:40;;;;;;;143.35;64.63;;;;;;;18.46;43.05;101916.72;5046561;28;20033;-71
2023/05/07 00:57:06;;;;;;;147.50;66.82;;;;;;;18.45;43.21;101909.69;5034621;28;20048;-72
2023/05/07 00:59:32;;;;;;;161.25;71.50;;;;;;;18.48;43.24;101914.94;5049853;28;20474;-73
2023/05/07 01:01:57;;;;;;;142.63;63.80;;;;;;;18.48;42.58;101921.06;5053344;28;20021;-71
2023/05/07 01:04:22;;;;;;;148.60;65.95;;;;;;;18.54;42.15;101904.13;5051999;28;20127;-73
2023/05/07 01:06:48;;;;;;;145.23;64.13;;;;;;;18.57;42.42;101910.22;5032772;28;20449;-71
2023/05/07 01:09:14;;;;;;;144.90;62.72;;;;;;;18.56;42.83;101918.19;5047470;28;20041;-71
2023/05/07 01:11:39;;;;;;;139.55;63.33;;;;;;;18.51;42.56;101910.38;5045639;28;20032;-71
2023/05/07 01:14:05;;;;;;;148.65;64.00;;;;;;;18.49;43.03;101914.00;5048736;28;20032;-71
2023/05/07 01:16:31;;;;;;;142.73;65.43;;;;;;;18.44;42.89;101905.34;5055245;28;20478;-71
2023/05/07 01:18:56;;;;;;;149.20;64.80;;;;;;;18.42;43.12;101911.53;5051287;28;20029;-71
2023/05/07 01:21:26;;;;;;;148.73;63.80;;;;;;;18.40;42.83;101913.34;5035776;28;20105;-71
2023/05/07 01:23:52;;;;;;;146.45;64.57;;;;;;;18.38;43.64;101907.25;5036098;28;20405;-71
2023/05/07 01:26:19;;;;;;;144.13;66.80;;;;;;;18.39;42.96;101909.00;5051573;28;20032;-72
2023/05/07 01:28:45;;;;;;;146.60;64.35;;;;;;;18.37;43.26;101910.81;5052981;28;20020;-71
2023/05/07 01:31:12;;;;;;;146.00;65.35;;;;;;;18.35;43.46;101903.81;5056076;28;20477;-71
2023/05/07 01:33:38;;;;;;;137.48;64.30;;;;;;;18.33;43.11;101897.72;5055677;28;20079;-71
2023/05/07 01:36:06;;;;;;;138.27;64.45;;;;;;;18.30;42.72;101901.31;5055573;28;20025;-72
2023/05/07 01:38:32;;;;;;;153.15;66.78;;;;;;;18.30;43.71;101906.63;5037510;28;20443;-72
2023/05/07 01:40:57;;;;;;;143.13;65.95;;;;;;;18.29;43.84;101904.88;5053288;28;20030;-72
2023/05/07 01:43:23;;;;;;;142.23;64.22;;;;;;;18.30;44.03;101901.31;5051809;28;20025;-72
2023/05/07 01:45:49;;;;;;;142.38;63.83;;;;;;;18.31;43.33;101904.81;5042542;28;20086;-71
2023/05/07 01:48:15;;;;;;;146.30;64.30;;;;;;;18.30;43.29;101916.34;5053176;28;20088;-71
2023/05/07 01:50:41;;;;;;;146.70;65.07;;;;;;;18.30;43.71;101911.91;5029331;28;20029;-71
2023/05/07 01:53:06;;;;;;;138.90;64.40;;;;;;;18.29;43.76;101904.88;5057360;28;20033;-72
2023/05/07 01:55:32;;;;;;;140.98;62.97;;;;;;;18.29;43.88;101904.88;5040781;28;20048;-72
2023/05/07 01:57:57;;;;;;;164.15;64.93;;;;;;;18.30;43.53;101905.75;5058843;28;20017;-72
2023/05/07 02:00:23;;;;;;;145.40;64.03;;;;;;;18.30;43.76;101916.34;5075681;28;20021;-71
2023/05/07 02:02:48;;;;;;;142.07;63.03;;;;;;;18.30;43.25;101917.19;5040997;28;20035;-71
2023/05/07 02:05:13;;;;;;;148.18;62.53;;;;;;;18.28;43.60;101924.28;5054085;28;20025;-72
2023/05/07 02:07:39;;;;;;;141.13;62.47;;;;;;;18.28;43.78;101926.94;5057596;28;20027;-71
2023/05/07 02:10:05;;;;;;;138.35;61.58;;;;;;;18.28;43.84;101934.00;5060579;28;20026;-72
2023/05/07 02:12:30;;;;;;;148.70;62.88;;;;;;;18.28;43.75;101926.94;5060379;28;20456;-72
2023/05/07 02:14:55;;;;;;;149.50;63.13;;;;;;;18.28;43.71;101940.16;5052689;28;20115;-71
2023/05/07 02:17:21;;;;;;;146.35;61.92;;;;;;;18.27;44.41;101938.44;5050284;28;20297;-72
2023/05/07 02:19:46;;;;;;;146.85;62.30;;;;;;;18.27;44.17;101938.44;5056817;28;20028;-72
2023/05/07 02:22:11;;;;;;;150.75;64.43;;;;;;;18.26;44.05;101935.84;5075371;28;20028;-71
2023/05/07 02:24:36;;;;;;;164.98;67.18;;;;;;;18.24;43.57;101942.03;5057530;28;20043;-71
2023/05/07 02:27:03;;;;;;;146.40;65.47;;;;;;;18.24;44.05;101949.09;5052733;28;20033;-72
2023/05/07 02:29:28;;;;;;;141.45;63.03;;;;;;;18.25;44.07;101942.91;5036235;28;20390;-72
2023/05/07 02:31:53;;;;;;;145.68;62.78;;;;;;;18.25;44.51;101945.53;5048660;28;20040;-72
2023/05/07 02:34:19;;;;;;;172.30;68.70;;;;;;;18.26;44.09;101941.16;5067819;28;20023;-72
2023/05/07 02:36:45;;;;;;;145.38;65.10;;;;;;;18.26;43.91;101946.44;5040785;28;20035;-71
2023/05/07 02:39:11;;;;;;;147.10;66.30;;;;;;;18.26;43.74;101941.16;5049418;28;20026;-72
2023/05/07 02:41:36;;;;;;;143.65;64.88;;;;;;;18.25;44.16;101934.97;5069912;28;20032;-71
2023/05/07 02:44:01;;;;;;;150.75;65.95;;;;;;;18.25;44.50;101934.97;5072089;28;20078;-71
2023/05/07 02:46:26;;;;;;;141.32;62.55;;;;;;;18.25;44.53;101937.63;5055500;28;20490;-71
2023/05/07 02:48:52;;;;;;;148.43;65.40;;;;;;;18.23;44.09;101939.44;5062019;28;20031;-72
2023/05/07 02:51:20;;;;;;;147.75;63.97;;;;;;;18.23;44.69;101939.44;5056424;28;20028;-72
2023/05/07 02:53:45;;;;;;;144.23;64.10;;;;;;;18.22;44.44;101940.34;5052855;28;20035;-72
2023/05/07 02:56:11;;;;;;;147.77;66.50;;;;;;;18.22;44.93;101935.06;5054787;28;20013;-72
2023/05/07 02:58:36;;;;;;;149.55;65.10;;;;;;;18.22;44.73;101956.22;5039624;28;20025;-72
2023/05/07 03:01:01;;;;;;;148.02;65.88;;;;;;;18.21;44.87;101949.19;5054796;28;20040;-72
2023/05/07 03:03:27;;;;;;;143.68;64.53;;;;;;;18.20;44.96;101950.09;5066135;28;20078;-73
2023/05/07 03:05:52;;;;;;;148.18;64.65;;;;;;;18.21;45.11;101955.34;5057673;28;20031;-72
2023/05/07 03:08:17;;;;;;;134.02;63.45;;;;;;;18.21;44.67;101954.47;5037640;28;20663;-72
2023/05/07 03:10:43;;;;;;;146.07;65.18;;;;;;;18.20;44.88;101952.72;5054697;28;20106;-72
2023/05/07 03:13:08;;;;;;;145.40;65.78;;;;;;;18.19;44.93;101959.81;5056504;28;20025;-72
2023/05/07 03:15:33;;;;;;;146.20;65.13;;;;;;;18.20;45.02;101963.31;5046253;28;20028;-72
2023/05/07 03:17:59;;;;;;;143.73;64.30;;;;;;;18.19;45.13;101957.16;5056169;28;20069;-74
2023/05/07 03:20:24;;;;;;;142.90;64.47;;;;;;;18.19;45.22;101956.31;5057026;28;20021;-72
2023/05/07 03:22:49;;;;;;;143.93;66.28;;;;;;;18.18;45.71;101954.56;5056047;28;20126;-72
2023/05/07 03:25:15;;;;;;;151.20;66.65;;;;;;;18.18;45.46;101949.28;5054637;28;20037;-71
2023/05/07 03:27:41;;;;;;;160.43;67.95;;;;;;;18.16;45.22;101951.97;5047141;28;20036;-72
2023/05/07 03:30:08;;;;;;;154.00;67.45;;;;;;;18.16;46.08;101951.09;5054052;28;20032;-71
2023/05/07 03:32:34;;;;;;;141.05;65.03;;;;;;;18.15;46.02;101955.53;5038460;28;20025;-72
2023/05/07 03:34:59;;;;;;;142.48;65.53;;;;;;;18.16;46.05;101945.81;5036974;28;20116;-71
2023/05/07 03:37:25;;;;;;;146.75;65.72;;;;;;;18.15;46.10;101949.38;5054118;28;20055;-72
2023/05/07 03:39:50;;;;;;;163.95;68.10;;;;;;;18.15;46.15;101955.53;5035505;28;20037;-71
2023/05/07 03:42:15;;;;;;;151.13;67.22;;;;;;;18.13;46.38;101936.19;5052301;28;20039;-71
2023/05/07 03:44:41;;;;;;;148.45;64.50;;;;;;;18.14;45.98;101945.00;5054547;28;20064;-72
2023/05/07 03:47:06;;;;;;;148.07;66.82;;;;;;;18.12;46.15;101938.88;5038277;28;20025;-72
2023/05/07 03:49:31;;;;;;;147.98;66.15;;;;;;;18.12;46.19;101945.03;5043438;28;20097;-72
2023/05/07 03:51:57;;;;;;;150.27;65.55;;;;;;;18.13;46.48;101946.75;5053834;28;20028;-72
2023/05/07 03:54:22;;;;;;;151.45;64.65;;;;;;;18.12;46.39;101949.44;5055789;28;20021;-72
2023/05/07 03:56:47;;;;;;;143.50;64.88;;;;;;;18.12;46.61;101955.63;5054461;28;20044;-71
2023/05/07 03:59:13;;;;;;;142.80;63.38;;;;;;;18.15;46.99;101959.97;5043134;28;20026;-72
2023/05/07 04:01:38;;;;;;;153.50;66.78;;;;;;;18.14;47.10;101966.16;5048904;28;20060;-72
2023/05/07 04:04:04;;;;;;;154.63;65.65;;;;;;;18.14;46.91;101955.56;5059797;28;20095;-71
2023/05/07 04:06:29;;;;;;;146.00;64.28;;;;;;;18.14;46.95;101955.56;5055552;28;20072;-72
2023/05/07 04:08:55;;;;;;;145.80;65.50;;;;;;;18.16;47.34;101961.66;5059687;28;20025;-71
2023/05/07 04:11:20;;;;;;;146.35;64.57;;;;;;;18.15;46.93;101963.47;5055454;28;20029;-72
2023/05/07 04:13:45;;;;;;;146.05;64.75;;;;;;;18.17;46.88;101977.47;5029078;28;20452;-72
2023/05/07 04:16:11;;;;;;;147.18;65.20;;;;;;;18.18;46.91;101975.72;5053890;28;20059;-71
2023/05/07 04:18:36;;;;;;;143.57;64.53;;;;;;;18.19;46.67;101973.03;5036798;28;20035;-72
2023/05/07 04:21:01;;;;;;;143.85;65.43;;;;;;;18.20;47.14;101969.50;5053974;28;20384;-72
2023/05/07 04:23:27;;;;;;;143.75;64.65;;;;;;;18.19;46.52;101965.09;5037968;28;20025;-71
2023/05/07 04:25:52;;;;;;;142.38;63.67;;;;;;;18.20;46.71;101969.50;5053548;28;20365;-71
2023/05/07 04:28:18;;;;;;;144.40;66.18;;;;;;;18.20;46.90;101964.19;5053382;28;20451;-70
2023/05/07 04:30:43;;;;;;;144.55;64.88;;;;;;;18.22;47.11;101972.09;5052694;28;20037;-70
2023/05/07 04:33:08;;;;;;;144.68;63.75;;;;;;;18.22;47.47;101980.03;5053847;28;20096;-72
2023/05/07 04:35:35;;;;;;;151.38;64.93;;;;;;;18.23;47.41;101973.81;5051349;28;20145;-71
2023/05/07 04:38:01;;;;;;;148.40;66.28;;;;;;;18.23;47.45;101969.41;5037499;28;20052;-71
2023/05/07 04:40:26;;;;;;;145.35;65.03;;;;;;;18.25;46.92;101966.69;5053987;28;20025;-71
2023/05/07 04:42:52;;;;;;;146.40;63.97;;;;;;;18.27;46.93;101964.91;5062259;28;20032;-71
2023/05/07 04:45:18;;;;;;;143.05;66.20;;;;;;;18.28;46.91;101960.47;5055192;28;20048;-72
2023/05/07 04:47:43;;;;;;;142.43;66.05;;;;;;;18.26;47.01;101960.50;5046305;28;20084;-71
2023/05/07 04:50:09;;;;;;;147.38;64.10;;;;;;;18.27;46.84;101967.53;5053516;28;20454;-71
2023/05/07 04:52:34;;;;;;;145.18;66.00;;;;;;;18.28;47.09;101968.41;5059870;28;20024;-71
2023/05/07 04:55:00;;;;;;;149.35;65.20;;;;;;;18.29;46.69;101972.78;5063060;28;20033;-71
2023/05/07 04:57:26;;;;;;;145.23;65.80;;;;;;;18.28;46.99;101971.91;5042974;28;20012;-71
2023/05/07 04:59:52;;;;;;;150.60;65.78;;;;;;;18.29;46.97;101978.94;5053381;28;20359;-70
2023/05/07 05:02:17;;;;;;;155.80;68.35;;;;;;;18.30;46.93;101987.75;5054862;28;20047;-71
2023/05/07 05:04:43;;;;;;;146.85;66.25;;;;;;;18.30;46.73;101991.25;5064519;28;20060;-71
2023/05/07 05:07:08;;;;;;;154.85;66.75;;;;;;;18.32;47.04;101985.91;5051418;28;20348;-71
2023/05/07 05:09:33;;;;;;;158.98;68.95;;;;;;;18.33;46.92;101985.88;5057430;28;20394;-71
2023/05/07 05:11:59;;;;;;;153.32;67.30;;;;;;;18.32;46.86;101989.41;5050340;28;20039;-71
2023/05/07 05:14:24;;;;;;;149.27;66.95;;;;;;;18.33;47.01;101983.22;5052091;28;20020;-71
2023/05/07 05:16:49;;;;;;;151.38;68.35;;;;;;;18.32;46.32;101978.84;5054645;28;20044;-71
2023/05/07 05:19:15;;;;;;;153.77;66.25;;;;;;;18.34;46.73;101981.47;5059500;28;20115;-70
2023/05/07 05:21:40;;;;;;;140.35;66.40;;;;;;;18.33;46.80;101979.72;5034991;28;20091;-71
2023/05/07 05:24:06;;;;;;;163.13;69.32;;;;;;;18.33;47.06;101983.22;5052557;28;20366;-71
2023/05/07 05:26:31;;;;;;;145.18;66.38;;;;;;;18.33;47.08;101982.38;5055695;28;20073;-71
2023/05/07 05:28:56;;;;;;;153.32;67.40;;;;;;;18.34;46.51;101984.97;5039999;28;20021;-70
2023/05/07 05:31:22;;;;;;;147.05;64.22;;;;;;;18.33;46.36;101988.50;5050796;22;20402;-70
2023/05/07 05:33:47;;;;;;;142.43;64.03;;;;;;;18.32;46.51;101999.13;5030888;28;20501;-69
2023/05/07 05:36:13;;;;;;;148.25;63.97;;;;;;;18.31;47.32;101993.00;5003993;28;20030;-72
2023/05/07 05:38:39;;;;;;;144.68;64.65;;;;;;;18.32;46.63;102004.44;4982949;28;20410;-71
2023/05/07 05:41:04;;;;;;;141.98;63.28;;;;;;;18.31;47.20;102005.34;5020806;28;20469;-71
2023/05/07 05:43:30;;;;;;;141.40;63.97;;;;;;;18.30;46.89;102004.47;5043689;28;20029;-70
2023/05/07 05:45:56;;;;;;;142.35;64.70;;;;;;;18.30;46.43;102007.13;5045266;28;20035;-71
2023/05/07 05:48:21;;;;;;;139.32;61.95;;;;;;;18.30;46.93;102012.41;5028054;28;20026;-71
2023/05/07 05:50:46;;;;;;;138.75;62.00;;;;;;;18.31;47.57;102019.44;5047129;28;20033;-71
2023/05/07 05:53:12;;;;;;;157.05;64.35;;;;;;;18.31;47.26;102018.56;5029146;28;20032;-71
2023/05/07 05:55:37;;;;;;;141.52;63.00;;;;;;;18.31;47.44;102014.16;5049374;28;20033;-71
2023/05/07 05:58:03;;;;;;;140.50;63.40;;;;;;;18.31;46.37;102008.88;5049690;28;20109;-71
2023/05/07 06:00:28;;;;;;;136.70;63.15;;;;;;;18.31;46.52;102008.88;5046300;28;20368;-71
2023/05/07 06:02:54;;;;;;;143.02;64.75;;;;;;;18.31;47.19;102011.50;5011693;28;20021;-70
2023/05/07 06:05:19;;;;;;;149.68;66.35;;;;;;;18.32;47.01;102015.84;5031053;28;20033;-71
2023/05/07 06:07:45;;;;;;;140.52;62.92;;;;;;;18.34;46.63;102023.78;5032298;28;20068;-70
2023/05/07 06:10:10;;;;;;;145.65;63.80;;;;;;;18.34;46.33;102019.34;5048678;28;20025;-70
2023/05/07 06:12:35;;;;;;;140.82;64.22;;;;;;;18.36;46.40;102027.25;5025907;28;20045;-72
2023/05/07 06:15:01;;;;;;;138.43;63.15;;;;;;;18.37;46.72;102024.53;5034245;28;20033;-71
2023/05/07 06:17:27;;;;;;;140.55;63.13;;;;;;;18.37;47.36;102029.84;5029685;28;20032;-71
2023/05/07 06:19:52;;;;;;;144.63;62.53;;;;;;;18.38;46.98;102025.44;5051436;28;20484;-71
2023/05/07 06:22:17;;;;;;;137.27;63.38;;;;;;;18.40;47.59;102029.75;5030903;28;20260;-71
2023/05/07 06:24:43;;;;;;;136.15;61.15;;;;;;;18.42;46.55;102033.22;5019177;28;20409;-71
2023/05/07 06:27:08;;;;;;;147.55;65.18;;;;;;;18.42;47.16;102035.88;5044256;28;20717;-72
2023/05/07 06:29:33;;;;;;;130.90;61.17;;;;;;;18.45;47.11;102031.38;5048992;28;20048;-70
2023/05/07 06:32:12;;;;;;;142.45;63.15;;;;;;;18.45;46.28;102029.63;5036952;28;20110;-72
2023/05/07 06:34:38;;;;;;;139.75;62.33;;;;;;;18.45;46.86;102026.09;5015311;28;20104;-73
2023/05/07 06:37:04;;;;;;;154.35;65.28;;;;;;;18.45;47.37;102026.97;5046362;28;20102;-72
2023/05/07 06:39:29;;;;;;;141.05;63.13;;;;;;;18.45;46.79;102024.34;5033110;28;20532;-72
2023/05/07 06:41:55;;;;;;;142.32;61.75;;;;;;;18.48;47.14;102026.03;5047581;28;20040;-72
2023/05/07 06:44:20;;;;;;;159.95;65.50;;;;;;;18.50;46.59;102021.56;5046976;28;20103;-72
2023/05/07 06:46:46;;;;;;;145.75;62.50;;;;;;;18.51;46.73;102032.09;5033328;28;20029;-72
2023/05/07 06:49:14;;;;;;;154.00;63.78;;;;;;;18.51;46.63;102036.53;5029874;28;20033;-72
2023/05/07 06:51:39;;;;;;;139.35;62.60;;;;;;;18.54;47.13;102028.50;5028590;28;20171;-72
2023/05/07 06:54:05;;;;;;;146.18;63.65;;;;;;;18.55;46.27;102030.22;5051579;28;20060;-72
2023/05/07 06:56:31;;;;;;;137.15;61.42;;;;;;;18.56;47.02;102040.75;5035931;28;20104;-72
2023/05/07 06:58:56;;;;;;;139.40;62.92;;;;;;;18.57;46.68;102044.31;5038796;28;20517;-72
2023/05/07 07:01:22;;;;;;;146.63;63.25;;;;;;;18.57;45.97;102037.22;5034715;28;20053;-72
2023/05/07 07:03:47;;;;;;;139.45;63.38;;;;;;;18.60;46.44;102036.28;5052774;28;20095;-72
2023/05/07 07:06:12;;;;;;;145.90;62.47;;;;;;;18.62;45.77;102037.06;5031017;28;20393;-72
2023/05/07 07:08:38;;;;;;;153.65;63.38;;;;;;;18.62;45.95;102037.06;5032686;28;20032;-72
2023/05/07 07:11:04;;;;;;;149.20;63.40;;;;;;;18.62;46.65;102039.72;5011303;28;20017;-72
2023/05/07 07:13:29;;;;;;;141.15;62.85;;;;;;;18.65;46.32;102034.34;5027850;28;20128;-72
2023/05/07 07:15:55;;;;;;;147.73;63.05;;;;;;;18.67;46.57;102036.97;5023203;28;20402;-72
2023/05/07 07:18:20;;;;;;;153.45;64.13;;;;;;;18.67;46.69;102037.81;5046534;28;20398;-72
2023/05/07 07:20:46;;;;;;;138.02;62.53;;;;;;;18.69;46.33;102040.41;5018361;28;20025;-72
2023/05/07 07:23:11;;;;;;;140.55;61.90;;;;;;;18.72;46.45;102038.56;5030253;28;20028;-72
2023/05/07 07:25:36;;;;;;;138.98;62.03;;;;;;;18.75;46.54;102034.97;5050250;28;20036;-72
2023/05/07 07:28:02;;;;;;;140.60;61.95;;;;;;;18.78;46.69;102034.00;5031669;28;20029;-72
2023/05/07 07:30:27;;;;;;;137.18;61.55;;;;;;;18.81;46.42;102031.25;5034324;28;20025;-72
2023/05/07 07:32:53;;;;;;;141.57;61.97;;;;;;;18.84;46.06;102029.41;5031456;28;20107;-71
2023/05/07 07:35:18;;;;;;;136.93;60.88;;;;;;;18.86;46.04;102024.06;5035412;28;20120;-71
2023/05/07 07:37:44;;;;;;;140.15;62.38;;;;;;;18.87;45.96;102037.25;5012451;28;20051;-72
2023/05/07 07:40:11;;;;;;;136.13;61.15;;;;;;;18.86;46.20;102034.63;5052155;28;20316;-72
2023/05/07 07:42:36;;;;;;;136.30;63.15;;;;;;;18.85;45.68;102035.53;5034674;28;20481;-72
2023/05/07 07:45:02;;;;;;;140.90;61.63;;;;;;;18.85;45.98;102040.84;5012868;28;20112;-71
2023/05/07 07:47:27;;;;;;;142.25;63.13;;;;;;;18.85;46.05;102047.00;5038217;28;20033;-71
2023/05/07 07:49:53;;;;;;;144.45;66.55;;;;;;;18.87;46.52;102039.88;5061064;28;20512;-70
2023/05/07 07:52:18;;;;;;;147.95;63.08;;;;;;;18.89;46.34;102042.50;5062796;28;20044;-70
2023/05/07 07:54:44;;;;;;;140.82;62.30;;;;;;;18.90;46.54;102038.97;5056684;28;20083;-71
2023/05/07 07:57:09;;;;;;;145.88;63.03;;;;;;;18.93;46.93;102036.22;5039486;28;20048;-71
2023/05/07 07:59:35;;;;;;;143.50;62.08;;;;;;;18.96;46.43;102033.47;5049973;28;20105;-70
2023/05/07 08:02:00;;;;;;;140.85;61.90;;;;;;;18.99;46.19;102045.75;5053757;28;20032;-70
2023/05/07 08:04:26;;;;;;;148.15;63.75;;;;;;;19.00;46.45;102051.00;5049975;28;20017;-70
2023/05/07 08:06:51;;;;;;;139.25;62.63;;;;;;;19.03;46.47;102053.56;5032165;28;20032;-71
2023/05/07 08:09:16;;;;;;;150.60;64.25;;;;;;;19.09;46.48;102056.03;5030595;28;20104;-72
2023/05/07 08:11:42;;;;;;;140.38;63.13;;;;;;;19.12;45.87;102049.75;5049315;28;20533;-71
2023/05/07 08:14:07;;;;;;;151.88;63.92;;;;;;;19.11;46.40;102048.03;5008745;28;20053;-72
2023/05/07 08:16:32;;;;;;;144.25;65.90;;;;;;;19.08;46.73;102054.28;5029569;28;20064;-74
2023/05/07 08:18:58;;;;;;;145.43;63.40;;;;;;;19.06;46.58;102061.41;5047063;28;20094;-73
2023/05/07 08:21:23;;;;;;;145.38;62.83;;;;;;;19.06;47.20;102049.94;5050852;28;20028;-71
2023/05/07 08:23:49;;;;;;;136.90;62.13;;;;;;;19.06;46.62;102056.13;5029554;28;20044;-71
2023/05/07 08:26:14;;;;;;;141.07;61.85;;;;;;;19.12;47.06;102059.50;5025611;28;20054;-71
2023/05/07 08:28:40;;;;;;;147.93;62.85;;;;;;;19.15;47.42;102059.41;5033414;28;20468;-72
2023/05/07 08:31:05;;;;;;;141.63;62.92;;;;;;;19.17;46.75;102073.44;5030858;28;20039;-73
2023/05/07 08:33:31;;;;;;;147.40;67.80;;;;;;;19.17;46.75;102063.75;5029269;28;20027;-72
2023/05/07 08:35:56;;;;;;;147.02;66.95;;;;;;;19.18;47.65;102076.06;5031233;28;20100;-71
2023/05/07 08:38:21;;;;;;;158.63;66.50;;;;;;;19.18;47.98;102069.88;5029300;28;20060;-72
2023/05/07 08:40:47;;;;;;;141.48;63.08;;;;;;;19.18;47.89;102080.47;5042771;28;20029;-71
2023/05/07 08:43:13;;;;;;;146.65;65.38;;;;;;;19.24;46.86;102064.41;5025156;28;20109;-73
2023/05/07 08:45:40;;;;;;;150.00;65.40;;;;;;;19.28;47.84;102073.13;5030454;28;20554;-74
2023/05/07 08:48:09;;;;;;;141.35;61.97;;;;;;;19.33;47.25;102073.84;5050587;28;20047;-73
2023/05/07 08:50:38;;;;;;;141.10;63.85;;;;;;;19.32;47.38;102070.34;5033053;28;20112;-71
2023/05/07 08:53:04;;;;;;;142.27;65.47;;;;;;;19.32;47.53;102075.66;5031790;28;20515;-71
2023/05/07 08:55:30;;;;;;;141.50;63.13;;;;;;;19.29;47.60;102080.16;5029192;28;20033;-71
2023/05/07 08:57:55;;;;;;;139.35;63.65;;;;;;;19.27;47.87;102089.94;5013169;28;20367;-72
2023/05/07 09:00:21;;;;;;;139.73;62.80;;;;;;;19.27;47.22;102082.84;5032452;28;20036;-73
2023/05/07 09:02:46;;;;;;;147.20;65.57;;;;;;;19.29;47.64;102081.00;5046712;28;20026;-72
2023/05/07 09:05:12;;;;;;;138.98;65.68;;;;;;;19.31;47.63;102092.44;5028443;28;20047;-71
2023/05/07 09:07:37;;;;;;;140.63;65.00;;;;;;;19.35;46.71;102077.34;5014818;28;20067;-73
2023/05/07 09:10:04;;;;;;;145.48;65.15;;;;;;;19.37;47.26;102075.50;5027771;28;20026;-73
2023/05/07 09:12:29;;;;;;;158.25;65.80;;;;;;;19.40;46.61;102080.69;5004644;28;20021;-73
2023/05/07 09:14:54;;;;;;;149.30;65.45;;;;;;;19.41;46.49;102087.72;5030495;28;20485;-71
2023/05/07 09:17:20;;;;;;;142.75;62.40;;;;;;;19.45;46.42;102083.19;5050751;28;20017;-71
2023/05/07 09:19:45;;;;;;;145.55;63.58;;;;;;;19.47;46.56;102091.94;5025891;28;20036;-71
2023/05/07 09:22:11;;;;;;;150.40;65.13;;;;;;;19.47;46.72;102091.94;5025632;28;20029;-72
2023/05/07 09:24:37;;;;;;;142.48;65.28;;;;;;;19.52;46.25;102096.19;5029188;28;20028;-72
2023/05/07 09:27:04;;;;;;;143.85;67.07;;;;;;;19.60;46.83;102095.97;4999492;28;20059;-72
2023/05/07 09:29:34;;;;;;;149.98;67.57;;;;;;;19.66;44.56;102103.72;5030425;28;20036;-68
2023/05/07 09:32:03;;;;;;;152.55;69.43;;;;;;;19.24;41.70;102109.44;5034786;28;20486;-71
2023/05/07 09:34:30;;;;;;;155.65;77.32;;;;;;;18.70;43.54;102117.13;5030705;28;20086;-71
2023/05/07 09:36:56;;;;;;;141.73;71.75;;;;;;;18.51;43.79;102100.03;5017837;28;20021;-72
2023/05/07 09:39:23;;;;;;;146.60;67.05;;;;;;;18.33;43.23;102096.94;5016383;28;20029;-71
2023/05/07 09:41:49;;;;;;;144.95;69.05;;;;;;;18.19;43.53;102104.41;5016438;28;20079;-71
2023/05/07 09:44:15;;;;;;;166.35;67.65;;;;;;;18.05;44.18;102097.69;5031571;28;20096;-73
2023/05/07 09:46:42;;;;;;;142.75;64.30;;;;;;;17.94;43.75;102099.69;5031379;28;20120;-70
2023/05/07 09:49:13;;;;;;;145.10;66.30;;;;;;;17.94;44.76;102102.34;5022729;28;20075;-71
2023/05/07 09:51:49;;;;;;;160.88;67.43;;;;;;;18.06;44.16;102099.44;5025620;28;20107;-71
2023/05/07 09:54:16;;;;;;;172.13;70.55;;;;;;;17.97;43.70;102102.28;5027394;28;20029;-72
2023/05/07 09:56:43;;;;;;;160.68;67.65;;;;;;;17.90;44.29;102113.88;5032115;28;20021;-71
2023/05/07 09:59:10;;;;;;;146.27;65.38;;;;;;;17.76;44.81;102121.28;5012575;28;20016;-72
2023/05/07 10:01:36;;;;;;;158.40;68.10;;;;;;;17.65;44.65;102119.75;5030822;28;20053;-71
2023/05/07 10:04:04;;;;;;;151.52;65.50;;;;;;;17.65;44.48;102119.75;5028135;28;20072;-72
2023/05/07 10:06:30;;;;;;;144.40;63.20;;;;;;;17.61;44.93;102112.78;5017459;28;20035;-71
2023/05/07 10:08:56;;;;;;;159.50;66.65;;;;;;;17.58;44.70;102108.44;5049148;28;20482;-71
2023/05/07 10:11:22;;;;;;;173.05;72.00;;;;;;;17.60;45.12;102111.09;5025537;28;20029;-71
2023/05/07 10:13:48;;;;;;;153.80;68.15;;;;;;;17.67;44.36;102117.94;5050097;28;20505;-71
2023/05/07 10:16:14;;;;;;;147.95;71.00;;;;;;;17.66;44.38;102120.63;5034982;28;20325;-72
2023/05/07 10:18:40;;;;;;;147.93;68.15;;;;;;;17.68;44.29;102114.41;5014438;28;20020;-71
2023/05/07 10:21:52;;;;;;;157.32;68.13;;;;;;;17.63;44.71;102121.56;5034681;28;20021;-71
2023/05/07 10:24:33;;;;;;;148.27;65.22;;;;;;;17.62;43.95;102111.91;5048760;28;20044;-70
2023/05/07 10:27:01;;;;;;;146.85;68.43;;;;;;;17.57;44.18;102105.84;5016219;28;20030;-71
2023/05/07 10:29:26;;;;;;;150.25;64.07;;;;;;;17.68;43.69;102103.84;5030099;28;20031;-71
2023/05/07 10:32:01;;;;;;;149.50;69.70;;;;;;;17.71;43.67;102119.63;5050494;28;20024;-71
2023/05/07 10:34:32;;;;;;;145.07;67.13;;;;;;;17.82;43.08;102115.84;5029970;28;20035;-71
2023/05/07 10:36:58;;;;;;;146.65;65.38;;;;;;;17.86;43.67;102109.56;5034142;28;20082;-71
2023/05/07 10:39:24;;;;;;;150.30;66.25;;;;;;;17.84;43.20;102114.03;5033882;28;20024;-71
2023/05/07 10:41:49;;;;;;;145.18;66.25;;;;;;;17.85;43.14;102110.50;5031530;28;20111;-71
2023/05/07 10:44:28;;;;;;;177.48;69.50;;;;;;;17.79;43.79;102110.63;5030640;28;20032;-71
2023/05/07 10:47:08;;;;;;;144.20;65.72;;;;;;;17.83;43.16;102118.47;5032221;28;20026;-72
2023/05/07 10:49:35;;;;;;;149.80;65.50;;;;;;;17.88;43.13;102110.41;5049207;28;20105;-72
2023/05/07 10:52:15;;;;;;;159.52;66.07;;;;;;;17.83;42.81;102114.94;5032904;28;20069;-71
2023/05/07 10:54:41;;;;;;;173.52;69.30;;;;;;;17.82;43.01;102115.84;5048872;28;20169;-71
2023/05/07 10:57:32;;;;;;;135.85;62.40;;;;;;;17.79;43.09;102115.91;5033587;28;20021;-71